Leesburg, Ohio
Current Conditions -  °F | °C
As of 3:54 PM on Saturday 25 Oct 2014 (Local Time) from KILN Reporting Station
Clear Clear  
Wind Chill: 69°   Ceiling: Unl
Heat Index: 69°   Visibility: 9mi
Dew Point: 54°   Wind: 17mph
Humidity: 58%   Direction: 260°W
Pressure: 29.89"   Gusts: NA
Location:  39.35°N, 83.55°W
Report Text: KILN 251954Z AUTO 26015KT 9SM CLR 21/12 A2989 RMK AO2 RAE32 SLP126 P0000 T02060122
Loading
Personal Weather Stations






























Interactive Weather Map
Tropical Storm Tracking
New forecast layout! Learn more

10-Day Weather Forecast

Advertisements
Track Severe Weather on mobile